createdAt,value
2022-12-26T07:57:48.764Z,5.42
2022-12-26T08:00:26.645Z,5.42
2022-12-26T08:03:07.787Z,5.45
2022-12-26T08:05:49.702Z,5.48
2022-12-26T08:08:27.230Z,5.49
2022-12-26T08:11:05.789Z,5.52
2022-12-26T08:13:45.301Z,5.52
2022-12-26T08:16:23.345Z,5.51
2022-12-26T08:19:00.496Z,5.55
2022-12-26T08:21:38.233Z,5.54
2022-12-26T08:24:16.359Z,5.56
2022-12-26T08:26:54.197Z,5.59
2022-12-26T08:29:33.875Z,5.61
2022-12-26T08:32:11.131Z,5.62
2022-12-26T08:34:48.615Z,5.64
2022-12-26T08:37:26.037Z,5.64
2022-12-26T08:40:02.940Z,5.66
2022-12-26T08:42:50.144Z,5.68
2022-12-26T08:45:39.755Z,5.71
2022-12-26T08:48:17.206Z,5.68
2022-12-26T08:51:02.048Z,5.71
2022-12-26T08:53:40.095Z,5.74
2022-12-26T08:56:20.068Z,5.77
2022-12-26T08:58:57.992Z,5.78
2022-12-26T09:01:38.256Z,5.81
2022-12-26T09:04:15.650Z,5.78
2022-12-26T09:06:53.209Z,5.82
2022-12-26T09:09:30.611Z,5.82
2022-12-26T09:12:07.813Z,5.84
2022-12-26T09:14:45.071Z,5.83
2022-12-26T09:17:26.726Z,5.88
2022-12-26T09:20:04.411Z,5.91
2022-12-26T09:22:53.838Z,5.90
2022-12-26T09:25:32.242Z,5.95
2022-12-26T09:28:09.327Z,5.96
2022-12-26T09:30:46.888Z,5.97
2022-12-26T09:33:26.462Z,6.00
2022-12-26T09:36:08.281Z,6.03
2022-12-26T09:38:49.205Z,6.05
2022-12-26T09:42:01.617Z,6.09
2022-12-26T09:44:54.400Z,6.12
2022-12-26T09:47:37.242Z,6.15
2022-12-26T09:50:23.850Z,6.17
2022-12-26T09:53:06.440Z,6.19
2022-12-26T09:55:52.211Z,6.24
2022-12-26T09:58:31.887Z,6.25
2022-12-26T10:01:14.006Z,6.29
2022-12-26T10:03:54.849Z,6.34
2022-12-26T10:06:42.141Z,6.37
2022-12-26T10:09:48.757Z,6.40
2022-12-26T10:12:42.491Z,6.43
2022-12-26T10:15:44.745Z,6.48
2022-12-26T10:18:36.162Z,6.50
2022-12-26T10:21:39.524Z,6.53
2022-12-26T10:24:21.983Z,6.53
2022-12-26T10:27:06.717Z,6.54
2022-12-26T10:29:47.208Z,6.56
2022-12-26T10:32:37.134Z,6.57
2022-12-26T10:35:25.770Z,6.61
2022-12-26T10:38:15.839Z,6.61
2022-12-26T10:40:57.209Z,6.62
2022-12-26T10:43:39.103Z,6.63
2022-12-26T10:46:55.107Z,6.65
2022-12-26T10:49:34.552Z,6.65
2022-12-26T10:52:14.287Z,6.69
2022-12-26T10:55:28.971Z,6.70
2022-12-26T10:58:01.729Z,6.71
2022-12-26T11:00:40.098Z,6.73
2022-12-26T11:03:19.538Z,6.76
2022-12-26T11:06:08.517Z,6.80
2022-12-26T11:08:53.233Z,6.81
2022-12-26T11:11:48.556Z,6.82
2022-12-26T11:14:35.614Z,6.86
2022-12-26T11:17:16.797Z,6.88
2022-12-26T11:20:12.219Z,6.89
2022-12-26T11:22:50.679Z,6.90
2022-12-26T11:25:30.722Z,6.93
2022-12-26T11:28:34.634Z,6.95
2022-12-26T11:31:27.127Z,6.98
2022-12-26T11:34:10.359Z,7.04
2022-12-26T11:36:54.820Z,7.12
2022-12-26T11:39:35.066Z,7.27
2022-12-26T11:42:15.381Z,7.33
2022-12-26T11:44:59.223Z,7.35
2022-12-26T11:47:42.481Z,7.37
2022-12-26T11:50:23.664Z,7.41
2022-12-26T11:53:20.565Z,7.46
2022-12-26T11:56:14.339Z,7.48
2022-12-26T11:58:52.087Z,7.49
2022-12-26T12:01:33.324Z,7.55
2022-12-26T12:04:11.826Z,7.58
2022-12-26T12:07:04.820Z,7.62
2022-12-26T12:09:53.497Z,7.72
2022-12-26T12:12:38.122Z,7.80
2022-12-26T12:15:23.333Z,7.85
2022-12-26T12:18:10.206Z,7.95
2022-12-26T12:21:04.105Z,8.00
2022-12-26T12:24:03.633Z,8.04
2022-12-26T12:26:54.430Z,8.10
2022-12-26T12:29:51.340Z,8.16
2022-12-26T12:32:42.676Z,8.18
2022-12-26T12:35:53.129Z,8.21
2022-12-26T12:38:36.457Z,8.22
2022-12-26T12:41:48.072Z,8.24
2022-12-26T12:44:33.500Z,8.26
2022-12-26T12:47:19.530Z,8.28
2022-12-26T12:50:09.569Z,8.28
2022-12-26T12:52:59.654Z,8.29
2022-12-26T12:56:02.600Z,8.31
2022-12-26T12:58:49.451Z,8.34
2022-12-26T13:01:33.405Z,8.33
2022-12-26T13:04:18.283Z,8.31
2022-12-26T13:06:59.982Z,8.31
2022-12-26T13:09:48.500Z,8.31
2022-12-26T13:12:29.720Z,8.32
2022-12-26T13:15:13.049Z,8.34
2022-12-26T13:17:57.898Z,8.37
2022-12-26T13:20:44.855Z,8.37
2022-12-26T13:23:45.552Z,8.39
2022-12-26T13:26:31.115Z,8.40
2022-12-26T13:29:16.228Z,8.40
2022-12-26T13:31:54.101Z,8.39
2022-12-26T13:34:32.007Z,8.37
2022-12-26T13:37:09.485Z,8.33
2022-12-26T13:39:47.091Z,8.35
2022-12-26T13:42:49.223Z,8.36
2022-12-26T13:45:58.674Z,8.35
2022-12-26T13:49:02.528Z,8.35
2022-12-26T13:51:58.546Z,8.34
2022-12-26T13:54:37.179Z,8.32
2022-12-26T13:57:45.266Z,8.33
2022-12-26T14:00:28.435Z,8.29
2022-12-26T14:03:41.376Z,8.33
2022-12-26T14:06:59.367Z,8.30
2022-12-26T14:10:01.806Z,8.30
2022-12-26T14:13:07.248Z,8.29
2022-12-26T14:15:57.297Z,8.28
2022-12-26T14:18:48.136Z,8.26
2022-12-26T14:21:43.208Z,8.21
2022-12-26T14:24:35.047Z,8.20
2022-12-26T14:27:35.190Z,8.19
2022-12-26T14:30:32.382Z,8.15
2022-12-26T14:33:31.412Z,8.12
2022-12-26T14:36:31.772Z,8.16
2022-12-26T14:39:25.627Z,8.16
2022-12-26T14:42:36.900Z,8.18
2022-12-26T14:45:58.205Z,8.18
2022-12-26T14:49:02.152Z,8.18
2022-12-26T14:51:44.312Z,8.16
2022-12-26T14:54:51.319Z,8.08
2022-12-26T14:57:46.858Z,8.12
2022-12-26T15:00:40.120Z,8.12
2022-12-26T15:03:55.334Z,8.13
2022-12-26T15:07:18.638Z,8.13
2022-12-26T15:10:57.389Z,8.09
2022-12-26T15:14:24.036Z,8.06
2022-12-26T15:17:15.267Z,8.07
2022-12-26T15:20:38.186Z,8.03
2022-12-26T15:24:03.231Z,8.02
2022-12-26T15:27:16.083Z,7.99
2022-12-26T15:30:19.235Z,7.98
2022-12-26T15:33:06.244Z,8.01
2022-12-26T15:35:52.058Z,8.04
2022-12-26T15:38:42.337Z,8.04
2022-12-26T15:41:37.882Z,8.03
2022-12-26T15:44:31.567Z,8.04
2022-12-26T15:47:22.196Z,8.02
2022-12-26T15:50:14.810Z,8.04
2022-12-26T15:53:04.004Z,8.03
2022-12-26T15:56:05.795Z,8.05
2022-12-26T15:59:09.305Z,8.05
2022-12-26T16:01:53.647Z,8.03
2022-12-26T16:04:34.399Z,8.06
2022-12-26T16:07:26.806Z,8.02
2022-12-26T16:10:04.942Z,8.03
2022-12-26T16:12:44.613Z,8.03
2022-12-26T16:15:26.235Z,8.04
2022-12-26T16:18:18.728Z,8.06
2022-12-26T16:21:11.192Z,8.05
2022-12-26T16:23:51.125Z,8.06
2022-12-26T16:26:32.269Z,8.05
2022-12-26T16:29:10.316Z,8.03
2022-12-26T16:31:50.415Z,8.05
2022-12-26T16:34:28.640Z,8.04
2022-12-26T16:37:05.892Z,8.05
2022-12-26T16:39:43.381Z,8.06
2022-12-26T16:42:36.063Z,8.04
2022-12-26T16:45:21.732Z,8.07
2022-12-26T16:48:02.035Z,8.09
2022-12-26T16:50:51.353Z,8.10
2022-12-26T16:53:45.820Z,8.11
2022-12-26T16:56:30.662Z,8.12
2022-12-26T16:59:17.690Z,8.07
2022-12-26T17:01:58.555Z,8.11
2022-12-26T17:04:38.647Z,8.11
2022-12-26T17:07:21.472Z,8.08
2022-12-26T17:10:02.036Z,8.06
2022-12-26T17:12:42.066Z,8.12
2022-12-26T17:15:26.271Z,8.13
2022-12-26T17:18:24.110Z,8.10
2022-12-26T17:21:22.761Z,8.14
2022-12-26T17:24:29.468Z,8.17
2022-12-26T17:27:20.534Z,8.18
2022-12-26T17:30:01.058Z,8.12
2022-12-26T17:32:43.410Z,8.11
2022-12-26T17:35:26.154Z,8.10
2022-12-26T17:38:14.130Z,8.14
2022-12-26T17:40:55.782Z,8.14
2022-12-26T17:43:37.090Z,8.16
2022-12-26T17:46:20.142Z,8.17
2022-12-26T17:48:57.453Z,8.18
2022-12-26T17:51:35.454Z,8.19
2022-12-26T17:54:17.590Z,8.17
2022-12-26T17:56:55.119Z,8.19
2022-12-26T17:59:35.972Z,8.21
2022-12-26T18:02:15.489Z,8.21
2022-12-26T18:04:55.154Z,8.21
2022-12-26T18:07:33.942Z,8.23
2022-12-26T18:10:22.011Z,8.23
2022-12-26T18:13:01.908Z,8.23
2022-12-26T18:15:40.820Z,8.24
2022-12-26T18:18:38.965Z,8.23
2022-12-26T18:21:19.879Z,8.24
2022-12-26T18:24:00.088Z,8.24
2022-12-26T18:26:43.211Z,8.25
2022-12-26T18:29:24.047Z,8.25
2022-12-26T18:32:02.735Z,8.25
2022-12-26T18:34:44.095Z,8.21
2022-12-26T18:37:23.992Z,8.24
2022-12-26T18:40:03.248Z,8.26
2022-12-26T18:42:50.303Z,8.25
2022-12-26T18:45:36.454Z,8.25
2022-12-26T18:48:20.569Z,8.21
2022-12-26T18:50:58.084Z,8.22
2022-12-26T18:53:35.894Z,8.23
2022-12-26T18:56:19.202Z,8.26
2022-12-26T18:59:03.042Z,8.26
2022-12-26T19:01:43.232Z,8.25
2022-12-26T19:04:22.072Z,8.24
2022-12-26T19:06:59.818Z,8.24
2022-12-26T19:09:37.605Z,8.25
2022-12-26T19:12:15.436Z,8.24
2022-12-26T19:14:55.659Z,8.25
2022-12-26T19:17:33.508Z,8.24
2022-12-26T19:20:20.213Z,8.26
2022-12-26T19:22:58.715Z,8.21
2022-12-26T19:25:37.759Z,8.25
2022-12-26T19:28:16.239Z,8.26
2022-12-26T19:30:56.448Z,8.27
2022-12-26T19:33:34.412Z,8.26
2022-12-26T19:36:13.671Z,8.26
2022-12-26T19:38:51.727Z,8.26
2022-12-26T19:41:30.662Z,8.26
2022-12-26T19:44:09.870Z,8.30
2022-12-26T19:46:49.676Z,8.30
2022-12-26T19:49:49.711Z,8.33
2022-12-26T19:52:30.908Z,8.29
2022-12-26T19:55:09.710Z,8.30
2022-12-26T19:57:47.323Z,8.31
2022-12-26T20:00:25.264Z,8.24
2022-12-26T20:03:05.912Z,8.26
2022-12-26T20:05:46.019Z,8.26
2022-12-26T20:08:24.662Z,8.27
2022-12-26T20:11:12.924Z,8.27
2022-12-26T20:13:51.620Z,8.25
2022-12-26T20:17:04.464Z,8.20
2022-12-26T20:19:32.611Z,8.21
2022-12-26T20:22:11.880Z,8.24
2022-12-26T20:24:56.909Z,8.24
2022-12-26T20:27:46.434Z,8.25
2022-12-26T20:30:27.007Z,8.25
2022-12-26T20:33:06.939Z,8.24
2022-12-26T20:35:51.071Z,8.26
2022-12-26T20:38:35.917Z,8.24
2022-12-26T20:41:19.380Z,8.26
2022-12-26T20:44:05.913Z,8.29
2022-12-26T20:46:47.316Z,8.28
2022-12-26T20:49:30.457Z,8.27
2022-12-26T20:52:10.069Z,8.25
2022-12-26T20:54:47.555Z,8.24
2022-12-26T20:57:25.304Z,8.25
2022-12-26T21:00:09.267Z,8.28
2022-12-26T21:02:56.506Z,8.27
2022-12-26T21:05:42.762Z,8.28
2022-12-26T21:08:30.495Z,8.29
2022-12-26T21:11:26.053Z,8.25
2022-12-26T21:14:18.751Z,8.29
2022-12-26T21:17:08.285Z,8.23
2022-12-26T21:19:53.253Z,8.23
2022-12-26T21:22:35.957Z,8.26
2022-12-26T21:25:18.250Z,8.17
2022-12-26T21:28:01.624Z,8.01
2022-12-26T21:30:52.580Z,7.93
2022-12-26T21:33:44.276Z,7.85
2022-12-26T21:36:29.343Z,7.61
2022-12-26T21:39:15.186Z,7.63
2022-12-26T21:41:58.793Z,7.55
2022-12-26T21:44:39.023Z,7.53
2022-12-26T21:47:19.945Z,7.37
2022-12-26T21:50:00.089Z,7.26
2022-12-26T21:52:38.342Z,7.21
2022-12-26T21:55:33.111Z,7.16
2022-12-26T21:58:20.567Z,7.05
2022-12-26T22:01:03.188Z,6.97
2022-12-26T22:04:02.393Z,6.88
2022-12-26T22:06:49.945Z,6.82
2022-12-26T22:09:28.833Z,6.78
2022-12-26T22:12:23.080Z,6.68
2022-12-26T22:15:04.339Z,6.63
2022-12-26T22:17:41.692Z,6.62
